Terminal Aerodrome Forecast
Issued by NWS Norman, OK

Home | Current Version | Previous Version | Text Only | Print | Product List | Glossary On
Versions: 1 2 3 4 5 6 7 8 9 10 11 12 13 14 15 16 17 18 19 20 21 22 23 24 25 26 27 28 29 30 31 32 33 34 35
000
FTUS44 KOUN 230531
TAFOKC
TAF
KOKC 230531Z 2306/2406 15014G20KT P6SM OVC008
     FM230800 17012KT 3SM BR OVC004
      TEMPO 2309/2313 1/2SM FG VV002
     FM231400 18012KT 5SM BR OVC008
     FM231800 23014KT P6SM BKN015
     FM232100 32021G30KT P6SM OVC030
     FM240300 32017G25KT P6SM SCT030=

USA.gov is the U.S. government's official web portal to all federal, state and local government web resources and services.